createdAt,value
2022-09-11T00:00:11.114Z,16.9
2022-09-11T00:03:11.134Z,16.3
2022-09-11T00:06:11.164Z,16.3
2022-09-11T00:09:11.153Z,16.5
2022-09-11T00:12:11.166Z,16.4
2022-09-11T00:15:11.167Z,16.4
2022-09-11T00:18:11.176Z,16.7
2022-09-11T00:21:11.201Z,17.8
2022-09-11T00:24:11.229Z,20.2
2022-09-11T00:27:11.220Z,17.1
2022-09-11T00:30:11.224Z,20.4
2022-09-11T00:33:11.236Z,18.6
2022-09-11T00:36:11.256Z,18.7
2022-09-11T00:39:11.256Z,19.8
2022-09-11T00:42:11.291Z,21.2
2022-09-11T00:45:11.277Z,20
2022-09-11T00:48:11.298Z,23.8
2022-09-11T00:51:11.300Z,22.2
2022-09-11T00:54:11.317Z,22.5
2022-09-11T00:57:11.321Z,24.9
2022-09-11T01:00:11.361Z,26.3
2022-09-11T01:03:11.350Z,27.6
2022-09-11T01:06:11.352Z,29.3
2022-09-11T01:09:11.366Z,32.7
2022-09-11T01:12:11.378Z,30.9
2022-09-11T01:15:11.391Z,33.9
2022-09-11T01:18:11.496Z,32.1
2022-09-11T01:21:11.411Z,29.9
2022-09-11T01:24:11.420Z,32.4
2022-09-11T01:27:11.431Z,31.9
2022-09-11T01:30:11.981Z,38.1
2022-09-11T01:33:11.452Z,40
2022-09-11T01:36:11.492Z,51.3
2022-09-11T01:39:11.476Z,78.4
2022-09-11T01:42:11.488Z,143.6
2022-09-11T01:45:11.491Z,135.8
2022-09-11T01:48:11.509Z,114.7
2022-09-11T01:51:11.523Z,126.2
2022-09-11T01:54:11.553Z,151.1
2022-09-11T01:57:11.547Z,126.9
2022-09-11T02:00:11.581Z,124.6
2022-09-11T02:03:11.602Z,151.9
2022-09-11T02:06:11.609Z,140.5
2022-09-11T02:09:11.603Z,123.2
2022-09-11T02:12:11.631Z,112.7
2022-09-11T02:15:11.612Z,123.7
2022-09-11T02:18:11.611Z,115.4
2022-09-11T02:21:11.618Z,98.2
2022-09-11T02:24:11.623Z,96.3
2022-09-11T02:27:11.622Z,101.7
2022-09-11T02:30:11.648Z,86.9
2022-09-11T02:33:11.629Z,91.1
2022-09-11T02:36:11.628Z,105.4
2022-09-11T02:39:11.637Z,118.7
2022-09-11T02:42:11.636Z,97.8
2022-09-11T02:45:11.638Z,107.2
2022-09-11T02:48:11.659Z,89.5
2022-09-11T02:51:11.638Z,100.8
2022-09-11T02:54:11.646Z,99.3
2022-09-11T02:57:11.636Z,95.3
2022-09-11T03:00:11.640Z,117.5
2022-09-11T03:03:11.654Z,111.5
2022-09-11T03:06:11.667Z,106.2
2022-09-11T03:09:11.657Z,105
2022-09-11T03:12:11.650Z,97.7
2022-09-11T03:15:11.647Z,92.9
2022-09-11T03:18:11.655Z,82.5
2022-09-11T03:21:11.650Z,83.2
2022-09-11T03:24:11.680Z,76.7
2022-09-11T03:27:11.660Z,78.2
2022-09-11T03:30:11.658Z,78.7
2022-09-11T03:33:11.664Z,74.7
2022-09-11T03:36:11.670Z,70.5
2022-09-11T03:39:11.666Z,68.2
2022-09-11T03:42:11.695Z,71.2
2022-09-11T03:45:11.676Z,79.5
2022-09-11T03:48:11.670Z,80.3
2022-09-11T03:51:11.667Z,85.9
2022-09-11T03:54:11.677Z,84.9
2022-09-11T03:57:11.686Z,91.5
2022-09-11T04:00:11.717Z,100.4
2022-09-11T04:03:11.707Z,101.6
2022-09-11T04:06:11.691Z,99
2022-09-11T04:09:11.701Z,109.5
2022-09-11T04:12:11.701Z,105
2022-09-11T04:15:11.700Z,101.8
2022-09-11T04:18:11.728Z,96.3
2022-09-11T04:21:11.712Z,103.3
2022-09-11T04:24:11.702Z,96.5
2022-09-11T04:27:11.721Z,98.8
2022-09-11T04:30:11.718Z,85.4
2022-09-11T04:33:11.721Z,84
2022-09-11T04:36:11.747Z,83.9
2022-09-11T04:39:11.719Z,84.2
2022-09-11T04:42:11.809Z,84.9
2022-09-11T04:45:11.723Z,84.9
2022-09-11T04:48:11.729Z,76.8
2022-09-11T04:51:11.731Z,82.3
2022-09-11T04:54:11.756Z,76
2022-09-11T04:57:11.728Z,77.5
2022-09-11T05:00:11.740Z,79.2
2022-09-11T05:03:11.734Z,75
2022-09-11T05:06:11.746Z,79.7
2022-09-11T05:09:11.742Z,75.7
2022-09-11T05:12:11.767Z,71.9
2022-09-11T05:15:11.752Z,76.3
2022-09-11T05:18:11.750Z,73.7
2022-09-11T05:21:11.748Z,73.5
2022-09-11T05:24:11.760Z,72.6
2022-09-11T05:27:11.753Z,71.6
2022-09-11T05:30:11.796Z,70.8
2022-09-11T05:33:11.763Z,67.9
2022-09-11T05:36:11.775Z,62.7
2022-09-11T05:39:11.776Z,66
2022-09-11T05:42:11.787Z,64.7
2022-09-11T05:45:11.795Z,65.9
2022-09-11T05:48:11.832Z,67
2022-09-11T05:51:11.804Z,69.8
2022-09-11T05:54:11.814Z,67.9
2022-09-11T05:57:11.815Z,67.7
2022-09-11T06:00:11.819Z,70
2022-09-11T06:03:15.367Z,69.5
2022-09-11T06:06:11.861Z,67
2022-09-11T06:09:11.847Z,68.4
2022-09-11T06:12:11.846Z,67
2022-09-11T06:15:25.027Z,67.5
2022-09-11T06:18:11.860Z,68
2022-09-11T06:21:11.856Z,68.9
2022-09-11T06:24:11.897Z,66.8
2022-09-11T06:27:11.876Z,63.5
2022-09-11T06:30:11.877Z,63.5
2022-09-11T06:33:11.890Z,67.9
2022-09-11T06:36:11.893Z,68.1
2022-09-11T06:39:11.889Z,61.5
2022-09-11T06:42:11.922Z,66.1
2022-09-11T06:45:11.907Z,60.6
2022-09-11T06:48:11.903Z,61.1
2022-09-11T06:51:11.906Z,62.4
2022-09-11T06:54:11.903Z,62.1
2022-09-11T06:57:11.917Z,60.7
2022-09-11T07:00:11.942Z,60.5
2022-09-11T07:03:11.917Z,61.1
2022-09-11T07:06:11.914Z,60.3
2022-09-11T07:09:11.917Z,62.6
2022-09-11T07:12:11.926Z,57.3
2022-09-11T07:15:11.923Z,57.6
2022-09-11T07:18:11.946Z,57.9
2022-09-11T07:21:11.934Z,55.8
2022-09-11T07:24:11.935Z,59.9
2022-09-11T07:27:11.940Z,54.4
2022-09-11T07:30:11.943Z,57.3
2022-09-11T07:33:11.942Z,56.9
2022-09-11T07:36:12.007Z,55.1
2022-09-11T07:39:11.943Z,54.8
2022-09-11T07:42:11.950Z,60.7
2022-09-11T07:45:11.946Z,54
2022-09-11T07:48:11.943Z,54.4
2022-09-11T07:51:11.948Z,52
2022-09-11T07:54:11.975Z,48.5
2022-09-11T07:57:11.958Z,47.1
2022-09-11T08:00:11.952Z,45.8
2022-09-11T08:03:11.957Z,44.3
2022-09-11T08:06:11.960Z,38.8
2022-09-11T08:09:11.962Z,39.9
2022-09-11T08:12:11.986Z,36.2
2022-09-11T08:15:11.964Z,34.9
2022-09-11T08:18:11.970Z,30.8
2022-09-11T08:21:12.996Z,29.3
2022-09-11T08:24:11.970Z,28.8
2022-09-11T08:27:11.971Z,27.6
2022-09-11T08:30:11.996Z,27.5
2022-09-11T08:33:11.976Z,25.7
2022-09-11T08:36:11.973Z,28.9
2022-09-11T08:39:11.976Z,27.5
2022-09-11T08:42:11.979Z,24
2022-09-11T08:45:11.975Z,22.6
2022-09-11T08:48:12.002Z,23
2022-09-11T08:51:11.973Z,22
2022-09-11T08:54:11.986Z,18.7
2022-09-11T08:57:12.013Z,20.6
2022-09-11T09:00:11.982Z,20.3
2022-09-11T09:03:11.981Z,22.4
2022-09-11T09:06:12.013Z,20.2
2022-09-11T09:09:11.990Z,20.6
2022-09-11T09:12:11.988Z,18.3
2022-09-11T09:15:11.993Z,19.5
2022-09-11T09:18:11.990Z,19.6
2022-09-11T09:21:11.997Z,17.2
2022-09-11T09:24:12.020Z,18.9
2022-09-11T09:27:12.002Z,17.2
2022-09-11T09:30:11.995Z,15.7
2022-09-11T09:33:13.338Z,15
2022-09-11T09:36:11.996Z,16.7
2022-09-11T09:39:12.011Z,18.1
2022-09-11T09:42:12.023Z,16.7
2022-09-11T09:45:12.007Z,16.3
2022-09-11T09:48:12.006Z,17.1
2022-09-11T09:51:12.014Z,17.6
2022-09-11T09:54:12.009Z,17.2
2022-09-11T09:57:12.008Z,17.5
2022-09-11T10:00:12.036Z,16.6
2022-09-11T10:03:12.006Z,16.5
2022-09-11T10:06:12.017Z,15.3
2022-09-11T10:09:12.012Z,15.4
2022-09-11T10:12:12.018Z,13.7
2022-09-11T10:15:12.014Z,12.4
2022-09-11T10:18:12.042Z,10.9
2022-09-11T10:21:12.020Z,14
2022-09-11T10:24:12.024Z,15.2
2022-09-11T10:27:12.020Z,13.1
2022-09-11T10:30:12.023Z,12.6
2022-09-11T10:33:12.022Z,13.4
2022-09-11T10:36:12.048Z,13.9
2022-09-11T10:39:12.023Z,12.5
2022-09-11T10:42:12.024Z,12.5
2022-09-11T10:45:12.035Z,12
2022-09-11T10:48:12.039Z,10.6
2022-09-11T10:51:12.031Z,10.9
2022-09-11T10:54:12.058Z,10.4
2022-09-11T10:57:12.037Z,9.9
2022-09-11T11:00:12.038Z,10.8
2022-09-11T11:03:12.046Z,10.2
2022-09-11T11:06:12.045Z,11
2022-09-11T11:09:12.040Z,9.5
2022-09-11T11:12:12.060Z,10.7
2022-09-11T11:15:12.037Z,10
2022-09-11T11:18:12.038Z,10.1
2022-09-11T11:21:12.043Z,9
2022-09-11T11:24:12.048Z,9
2022-09-11T11:27:12.046Z,7.9
2022-09-11T11:30:12.107Z,8.5
2022-09-11T11:33:12.050Z,8.8
2022-09-11T11:36:12.055Z,9
2022-09-11T11:39:12.055Z,8.2
2022-09-11T11:42:12.055Z,8
2022-09-11T11:45:12.056Z,9.4
2022-09-11T11:48:12.087Z,9.5
2022-09-11T11:51:12.060Z,9.2
2022-09-11T11:54:12.060Z,9.8
2022-09-11T11:57:12.064Z,10.8
2022-09-11T12:00:12.136Z,13
2022-09-11T12:03:12.090Z,10
2022-09-11T12:06:12.100Z,9.8
2022-09-11T12:09:12.071Z,8.6
2022-09-11T12:12:12.080Z,8.8
2022-09-11T12:15:12.083Z,9.3
2022-09-11T12:18:12.083Z,8.8
2022-09-11T12:21:12.077Z,8.6
2022-09-11T12:24:12.107Z,9.3
2022-09-11T12:27:12.089Z,10
2022-09-11T12:30:12.170Z,10.5
2022-09-11T12:33:12.090Z,10.2
2022-09-11T12:36:12.094Z,11
2022-09-11T12:39:12.091Z,9.9
2022-09-11T12:42:12.115Z,11
2022-09-11T12:45:12.096Z,10
2022-09-11T12:48:12.098Z,10.6
2022-09-11T12:51:12.099Z,10.3
2022-09-11T12:54:12.100Z,13.1
2022-09-11T12:57:12.103Z,12.7
2022-09-11T13:00:12.129Z,10.7
2022-09-11T13:03:12.112Z,9.9
2022-09-11T13:06:12.113Z,9.6
2022-09-11T13:09:12.109Z,9.3
2022-09-11T13:12:12.114Z,9.3
2022-09-11T13:15:12.127Z,10
2022-09-11T13:18:12.146Z,7.2
2022-09-11T13:21:12.125Z,7.9
2022-09-11T13:24:12.127Z,8.3
2022-09-11T13:27:12.132Z,5.9
2022-09-11T13:30:12.130Z,9.1
2022-09-11T13:33:12.136Z,7.9
2022-09-11T13:36:12.162Z,7.1
2022-09-11T13:39:12.143Z,10
2022-09-11T13:42:12.137Z,8
2022-09-11T13:45:12.152Z,9.8
2022-09-11T13:48:12.151Z,10.2
2022-09-11T13:51:12.159Z,10.4
2022-09-11T13:54:12.184Z,11.1
2022-09-11T13:57:12.162Z,10.9
2022-09-11T14:00:12.163Z,12
2022-09-11T14:03:12.169Z,10.1
2022-09-11T14:06:12.169Z,9.8
2022-09-11T14:09:12.177Z,8.6
2022-09-11T14:12:12.204Z,9.4
2022-09-11T14:15:12.188Z,9.5
2022-09-11T14:18:12.186Z,7.7
2022-09-11T14:21:12.190Z,8.1
2022-09-11T14:24:12.191Z,8.9
2022-09-11T14:27:12.189Z,6.9
2022-09-11T14:30:12.213Z,6.4
2022-09-11T14:33:12.198Z,6.3
2022-09-11T14:36:12.197Z,6.8
2022-09-11T14:39:12.203Z,6.9
2022-09-11T14:42:12.210Z,5.8
2022-09-11T14:45:12.206Z,5
2022-09-11T14:48:12.232Z,5.5
2022-09-11T14:51:13.580Z,5.2
2022-09-11T14:54:12.215Z,4.7
2022-09-11T14:57:12.214Z,5.8
2022-09-11T15:00:12.216Z,6.5
2022-09-11T15:03:12.258Z,6.5
2022-09-11T15:06:12.246Z,4.5
2022-09-11T15:09:12.237Z,6.6
2022-09-11T15:12:12.230Z,6.3
2022-09-11T15:15:12.235Z,5.9
2022-09-11T15:18:12.239Z,4.5
2022-09-11T15:21:12.245Z,4.7
2022-09-11T15:24:12.278Z,4.5
2022-09-11T15:27:12.246Z,5.9
2022-09-11T15:30:12.403Z,5.1
2022-09-11T15:33:12.267Z,5.2
2022-09-11T15:36:12.256Z,5.9
2022-09-11T15:39:12.260Z,5.1
2022-09-11T15:42:12.285Z,5.4
2022-09-11T15:45:12.270Z,5.1
2022-09-11T15:48:12.269Z,4.6
2022-09-11T15:51:13.368Z,5.2
2022-09-11T15:54:12.275Z,4.5
2022-09-11T15:57:12.283Z,5.5
2022-09-11T16:00:12.307Z,4.4
2022-09-11T16:03:12.301Z,5
2022-09-11T16:06:12.291Z,5.3
2022-09-11T16:09:12.302Z,5.3
2022-09-11T16:12:12.299Z,4.3
2022-09-11T16:15:12.300Z,5.8
2022-09-11T16:18:12.332Z,4
2022-09-11T16:21:12.319Z,4.6
2022-09-11T16:24:12.318Z,3.9
2022-09-11T16:27:12.316Z,3.3
2022-09-11T16:30:43.711Z,4.8
2022-09-11T16:33:12.318Z,3
2022-09-11T16:36:16.540Z,3.1
2022-09-11T16:39:12.335Z,3.5
2022-09-11T16:42:12.331Z,3.4
2022-09-11T16:45:12.340Z,3.1
2022-09-11T16:48:12.342Z,4.9
2022-09-11T16:51:12.380Z,3
2022-09-11T16:54:12.376Z,3.5
2022-09-11T16:57:12.354Z,2.7
2022-09-11T17:00:12.356Z,2.6
2022-09-11T17:03:12.361Z,2.6
2022-09-11T17:06:12.365Z,2.4
2022-09-11T17:09:12.365Z,2.6
2022-09-11T17:12:12.388Z,3.3
2022-09-11T17:15:12.374Z,3.2
2022-09-11T17:18:12.380Z,2.6
2022-09-11T17:21:12.387Z,3
2022-09-11T17:24:12.382Z,2.4
2022-09-11T17:27:12.382Z,3.2
2022-09-11T17:30:12.410Z,3.6
2022-09-11T17:33:12.385Z,2.4
2022-09-11T17:36:12.399Z,2.7
2022-09-11T17:39:12.398Z,3.4
2022-09-11T17:42:13.348Z,3.9
2022-09-11T17:45:12.397Z,3.3
2022-09-11T17:48:12.427Z,3.3
2022-09-11T17:51:12.416Z,3
2022-09-11T17:54:12.402Z,2.4
2022-09-11T17:57:12.412Z,5
2022-09-11T18:00:12.409Z,3
2022-09-11T18:03:12.413Z,4.3
2022-09-11T18:06:12.436Z,3.5
2022-09-11T18:09:12.417Z,5.1
2022-09-11T18:12:12.421Z,3.5
2022-09-11T18:15:12.430Z,3.8
2022-09-11T18:18:12.433Z,4.1
2022-09-11T18:21:12.432Z,3.4
2022-09-11T18:24:12.464Z,4.5
2022-09-11T18:27:12.442Z,5.9
2022-09-11T18:30:12.446Z,4.9
2022-09-11T18:33:12.446Z,4.3
2022-09-11T18:36:12.454Z,3.9
2022-09-11T18:39:12.456Z,4.2
2022-09-11T18:42:12.487Z,3.7
2022-09-11T18:45:12.468Z,4.8
2022-09-11T18:48:12.472Z,3.9
2022-09-11T18:51:12.484Z,4
2022-09-11T18:54:12.477Z,3.4
2022-09-11T18:57:12.489Z,4.3
2022-09-11T19:00:12.516Z,4
2022-09-11T19:03:12.495Z,4.4
2022-09-11T19:06:12.508Z,3.5
2022-09-11T19:09:12.506Z,3.5
2022-09-11T19:12:12.515Z,4.7
2022-09-11T19:15:12.522Z,4
2022-09-11T19:18:12.553Z,4.3
2022-09-11T19:21:12.529Z,4.2
2022-09-11T19:24:12.534Z,4
2022-09-11T19:27:12.539Z,4.9
2022-09-11T19:30:12.553Z,4.4
2022-09-11T19:33:12.555Z,3.9
2022-09-11T19:36:12.580Z,5.1
2022-09-11T19:39:12.563Z,3.2
2022-09-11T19:42:12.568Z,4.8
2022-09-11T19:45:12.570Z,4.2
2022-09-11T19:48:12.574Z,4
2022-09-11T19:51:12.599Z,4.6
2022-09-11T19:54:12.615Z,3.5
2022-09-11T19:57:12.592Z,3.9
2022-09-11T20:00:12.606Z,3.6
2022-09-11T20:03:12.607Z,5.8
2022-09-11T20:06:12.608Z,5.6
2022-09-11T20:09:32.298Z,4.7
2022-09-11T20:12:12.644Z,4.4
2022-09-11T20:15:12.628Z,4.6
2022-09-11T20:18:12.630Z,7.7
2022-09-11T20:21:12.642Z,9.2
2022-09-11T20:24:12.655Z,8.9
2022-09-11T20:27:12.658Z,9.1
2022-09-11T20:30:12.693Z,7.5
2022-09-11T20:33:12.670Z,6.1
2022-09-11T20:36:12.671Z,6.2
2022-09-11T20:39:12.691Z,5.4
2022-09-11T20:42:12.696Z,6.1
2022-09-11T20:45:12.707Z,5.7
2022-09-11T20:48:12.737Z,5.4
2022-09-11T20:51:12.717Z,3.9
2022-09-11T20:54:12.724Z,3.7
2022-09-11T20:57:12.730Z,4.4
2022-09-11T21:00:12.737Z,5.3
2022-09-11T21:03:12.746Z,5.8
2022-09-11T21:06:12.781Z,4.7
2022-09-11T21:09:12.766Z,4.9
2022-09-11T21:12:12.768Z,5.7
2022-09-11T21:15:12.781Z,4.9
2022-09-11T21:18:12.786Z,5.6
2022-09-11T21:21:12.793Z,5.1
2022-09-11T21:24:12.829Z,5.3
2022-09-11T21:27:12.813Z,5.8
2022-09-11T21:30:12.822Z,6.6
2022-09-11T21:33:12.828Z,5.6
2022-09-11T21:36:12.837Z,4.9
2022-09-11T21:39:12.850Z,6
2022-09-11T21:42:12.880Z,5.8
2022-09-11T21:45:12.863Z,5.5
2022-09-11T21:48:12.875Z,5.7
2022-09-11T21:51:12.881Z,6.5
2022-09-11T21:54:12.889Z,6
2022-09-11T21:57:12.901Z,6.7
2022-09-11T22:00:12.928Z,5.3
2022-09-11T22:03:12.916Z,6.8
2022-09-11T22:06:12.920Z,5.5
2022-09-11T22:09:12.929Z,7
2022-09-11T22:12:12.939Z,6.8
2022-09-11T22:15:12.944Z,7
2022-09-11T22:18:12.989Z,6.9
2022-09-11T22:21:12.972Z,6.6
2022-09-11T22:24:12.983Z,7.2
2022-09-11T22:27:12.989Z,7
2022-09-11T22:30:13.001Z,6.9
2022-09-11T22:33:13.011Z,7.9
2022-09-11T22:36:13.039Z,6.1
2022-09-11T22:39:13.022Z,6.8
2022-09-11T22:42:13.038Z,7.6
2022-09-11T22:45:13.044Z,8.5
2022-09-11T22:48:13.050Z,7.4
2022-09-11T22:51:13.059Z,7.9
2022-09-11T22:54:13.095Z,9
2022-09-11T22:57:13.075Z,8.2
2022-09-11T23:00:13.086Z,7.4
2022-09-11T23:03:13.101Z,7
2022-09-11T23:06:13.111Z,6.7
2022-09-11T23:09:13.124Z,9.7
2022-09-11T23:12:13.157Z,10.4
2022-09-11T23:15:13.147Z,10
2022-09-11T23:18:13.154Z,9.5
2022-09-11T23:21:13.166Z,11.1
2022-09-11T23:24:13.166Z,7.7
2022-09-11T23:27:13.180Z,7.9
2022-09-11T23:30:13.222Z,9.6
2022-09-11T23:33:13.202Z,10.2
2022-09-11T23:36:13.217Z,9.6
2022-09-11T23:39:13.222Z,8.5
2022-09-11T23:42:13.236Z,8.1
2022-09-11T23:45:13.246Z,7.6
2022-09-11T23:48:13.281Z,7.9
2022-09-11T23:51:13.278Z,9.3
2022-09-11T23:54:13.283Z,10.4
2022-09-11T23:57:13.295Z,11.1
